Time;durP1;ratioP1;P1;durP2;ratioP2;P2;SDS_P1;SDS_P2;PMS_P1;PMS_P2;Temp;Humidity;BMP_temperature;BMP_pressure;BME280_temperature;BME280_humidity;BME280_pressure;Samples;Min_cycle;Max_cycle;Signal;HPM_P1;HPM_P2
2024/02/23 00:01:01;;;;;;;10.45;4.90;;;;;;;9.64;90.82;98959.66;6252190;28;20057;-75
2024/02/23 00:04:02;;;;;;;9.02;4.68;;;;;;;9.50;91.43;98947.63;6244623;28;20045;-71
2024/02/23 00:07:03;;;;;;;7.93;4.30;;;;;;;9.41;91.17;98943.09;6245775;28;20045;-75
2024/02/23 00:10:05;;;;;;;8.77;4.85;;;;;;;9.41;90.83;98951.75;6247523;28;20057;-70
2024/02/23 00:13:06;;;;;;;7.88;4.20;;;;;;;9.46;90.61;98954.84;6246706;28;20055;-75
2024/02/23 00:16:06;;;;;;;11.50;5.32;;;;;;;9.45;89.83;98955.78;6244211;28;20053;-75
2024/02/23 00:19:10;;;;;;;9.65;5.45;;;;;;;9.48;89.65;98963.38;6243993;28;20187;-75
2024/02/23 00:22:11;;;;;;;7.85;4.30;;;;;;;9.57;89.05;98948.81;6261674;28;20045;-76
2024/02/23 00:25:12;;;;;;;9.98;4.38;;;;;;;9.52;89.89;98950.97;6251324;28;20096;-71
2024/02/23 00:28:13;;;;;;;11.80;4.43;;;;;;;9.50;89.35;98944.22;6272012;28;20503;-71
2024/02/23 00:31:14;;;;;;;7.10;4.65;;;;;;;9.38;89.65;98944.16;6255383;28;20077;-70
2024/02/23 00:34:15;;;;;;;9.02;4.75;;;;;;;9.34;90.87;98939.28;6243784;28;20456;-75
2024/02/23 00:37:16;;;;;;;6.57;3.93;;;;;;;9.35;90.95;98931.38;6260815;28;20541;-76
2024/02/23 00:40:17;;;;;;;7.10;3.63;;;;;;;9.31;89.70;98918.69;6244107;28;20046;-75
2024/02/23 00:43:19;;;;;;;10.52;4.13;;;;;;;9.32;89.24;98922.97;6243325;28;20053;-76
2024/02/23 00:46:20;;;;;;;6.80;3.97;;;;;;;9.42;89.01;98922.16;6249888;28;20058;-75
2024/02/23 00:49:26;;;;;;;9.93;3.65;;;;;;;9.32;88.80;98907.34;6243066;28;20091;-75
2024/02/23 00:52:29;;;;;;;8.75;4.38;;;;;;;9.36;89.42;98908.78;6248310;28;20053;-75
2024/02/23 00:55:30;;;;;;;7.45;3.92;;;;;;;9.32;88.76;98915.16;6245241;28;20057;-75
2024/02/23 00:58:35;;;;;;;8.00;3.80;;;;;;;9.40;88.68;98908.44;6249574;28;20386;-75
2024/02/23 01:01:36;;;;;;;7.97;4.18;;;;;;;9.43;87.66;98918.63;6250403;28;20060;-75
2024/02/23 01:04:37;;;;;;;7.28;3.80;;;;;;;9.38;87.54;98907.72;6245450;28;20048;-75
2024/02/23 01:07:37;;;;;;;10.68;4.43;;;;;;;9.47;87.36;98914.00;6256240;28;20053;-75
2024/02/23 01:10:38;;;;;;;6.50;3.90;;;;;;;9.42;87.80;98914.34;6246953;28;20135;-75
2024/02/23 01:13:39;;;;;;;10.48;4.82;;;;;;;9.41;87.66;98907.50;6249483;28;20511;-70
2024/02/23 01:16:40;;;;;;;6.82;3.80;;;;;;;9.34;87.59;98913.25;6253315;28;20140;-70
2024/02/23 01:19:41;;;;;;;8.32;4.03;;;;;;;9.42;88.19;98913.53;6247190;28;20057;-71
2024/02/23 01:22:42;;;;;;;8.85;4.07;;;;;;;9.32;87.94;98909.94;6250171;28;20136;-71
2024/02/23 01:25:42;;;;;;;11.60;3.83;;;;;;;9.27;89.16;98923.31;6246983;28;20516;-75
2024/02/23 01:28:46;;;;;;;10.15;4.20;;;;;;;9.32;88.38;98909.94;6251580;28;20053;-75
2024/02/23 01:31:46;;;;;;;9.48;4.00;;;;;;;9.40;88.47;98907.59;6248850;28;20059;-72
2024/02/23 01:34:47;;;;;;;8.63;3.88;;;;;;;9.47;88.10;98911.41;6252996;28;20050;-71
2024/02/23 01:37:48;;;;;;;7.85;3.80;;;;;;;9.44;87.65;98898.63;6254760;28;20520;-72
2024/02/23 01:40:48;;;;;;;10.48;4.40;;;;;;;9.36;88.56;98914.81;6253275;28;20573;-71
2024/02/23 01:43:50;;;;;;;5.90;3.58;;;;;;;9.25;87.95;98906.97;6251812;28;20045;-71
2024/02/23 01:46:51;;;;;;;6.65;4.18;;;;;;;9.54;87.50;98902.19;6256227;28;20049;-75
2024/02/23 01:49:52;;;;;;;5.63;3.53;;;;;;;9.56;85.96;98899.50;6260811;28;20569;-75
2024/02/23 01:52:54;;;;;;;5.63;3.40;;;;;;;9.45;85.66;98898.53;6260541;28;20556;-71
2024/02/23 01:55:55;;;;;;;6.43;3.75;;;;;;;9.55;85.53;98903.84;6253841;28;20049;-70
2024/02/23 01:58:56;;;;;;;6.97;3.88;;;;;;;9.61;84.32;98895.56;6248540;28;20080;-70
2024/02/23 02:01:57;;;;;;;5.70;3.60;;;;;;;9.58;84.25;98903.63;6248267;28;20443;-71
2024/02/23 02:04:58;;;;;;;5.63;3.70;;;;;;;9.58;81.72;98908.00;6250256;28;20115;-70
2024/02/23 02:08:00;;;;;;;8.38;3.53;;;;;;;9.71;81.82;98908.72;6262431;28;20056;-71
2024/02/23 02:11:01;;;;;;;9.25;3.63;;;;;;;9.75;81.53;98907.56;6250924;28;20241;-75
2024/02/23 02:14:02;;;;;;;7.10;3.45;;;;;;;9.78;81.70;98916.91;6266944;28;20045;-71
2024/02/23 02:17:03;;;;;;;6.65;3.70;;;;;;;9.83;81.17;98923.44;6250918;28;20044;-70
2024/02/23 02:20:07;;;;;;;5.80;3.20;;;;;;;9.88;82.08;98920.47;6268687;28;20083;-72
2024/02/23 02:23:08;;;;;;;8.85;4.68;;;;;;;9.80;82.73;98908.06;6262781;28;20670;-71
2024/02/23 02:26:09;;;;;;;8.75;3.55;;;;;;;9.79;83.59;98918.59;6271172;28;20089;-71
2024/02/23 02:29:10;;;;;;;9.65;3.67;;;;;;;9.82;82.62;98923.53;6257508;28;20099;-71
2024/02/23 02:32:13;;;;;;;7.00;3.00;;;;;;;9.67;81.82;98921.16;6269134;28;20098;-71
2024/02/23 02:35:13;;;;;;;7.57;3.67;;;;;;;9.88;81.79;98915.25;6264540;28;20060;-71
2024/02/23 02:38:14;;;;;;;5.75;3.53;;;;;;;9.91;81.34;98919.44;6249777;28;20049;-75
2024/02/23 02:41:17;;;;;;;5.68;3.55;;;;;;;9.78;82.08;98922.13;6252426;28;20064;-73
2024/02/23 02:44:18;;;;;;;5.93;2.85;;;;;;;9.84;81.69;98927.72;6259324;28;20049;-75
2024/02/23 02:47:19;;;;;;;6.20;3.58;;;;;;;9.69;81.43;98923.66;6263870;28;20045;-75
2024/02/23 02:50:20;;;;;;;5.97;3.13;;;;;;;9.83;81.09;98931.25;6250331;28;20125;-75
2024/02/23 02:53:21;;;;;;;6.88;3.78;;;;;;;9.79;80.47;98931.59;6257059;28;20433;-75
2024/02/23 02:56:21;;;;;;;5.90;3.30;;;;;;;9.92;81.27;98926.28;6264840;28;20057;-70
2024/02/23 02:59:23;;;;;;;4.72;2.80;;;;;;;9.88;80.90;98926.53;6247415;28;20053;-71
2024/02/23 03:02:24;;;;;;;5.30;2.80;;;;;;;9.82;80.62;98932.22;6263851;28;20049;-75
2024/02/23 03:05:24;;;;;;;5.22;2.95;;;;;;;9.77;80.97;98933.50;6260158;28;20053;-75
2024/02/23 03:08:26;;;;;;;4.53;2.85;;;;;;;9.82;80.56;98939.19;6260535;28;20060;-75
2024/02/23 03:11:26;;;;;;;6.30;3.28;;;;;;;9.78;81.06;98922.97;6269525;28;20064;-70
2024/02/23 03:14:28;;;;;;;6.85;3.42;;;;;;;9.89;80.68;98930.78;6266484;28;20064;-76
2024/02/23 03:17:29;;;;;;;7.22;3.50;;;;;;;9.77;81.71;98933.50;6264182;28;20159;-76
2024/02/23 03:20:32;;;;;;;8.80;3.47;;;;;;;9.67;81.40;98936.78;6260081;28;20049;-71
2024/02/23 03:23:36;;;;;;;7.60;3.50;;;;;;;9.79;81.61;98935.03;6251638;28;20367;-70
2024/02/23 03:26:36;;;;;;;5.60;3.03;;;;;;;9.64;82.36;98951.84;6256174;28;20183;-70
2024/02/23 03:29:40;;;;;;;7.30;3.50;;;;;;;9.64;82.31;98950.03;6260795;28;20082;-75
2024/02/23 03:32:42;;;;;;;6.30;2.80;;;;;;;9.73;82.62;98956.34;6268980;28;20045;-75
2024/02/23 03:35:43;;;;;;;8.18;3.22;;;;;;;9.72;82.79;98957.28;6259032;28;20045;-75
2024/02/23 03:38:43;;;;;;;8.35;3.40;;;;;;;9.71;82.61;98960.84;6261904;28;20048;-70
2024/02/23 03:41:44;;;;;;;4.75;3.03;;;;;;;9.68;82.87;98958.47;6263761;28;20057;-70
2024/02/23 03:44:45;;;;;;;8.20;3.15;;;;;;;9.66;82.76;98961.19;6265175;28;20052;-71
2024/02/23 03:47:45;;;;;;;4.40;2.88;;;;;;;9.82;82.44;98960.03;6272312;28;20132;-71
2024/02/23 03:50:46;;;;;;;4.47;2.53;;;;;;;9.68;83.89;98961.06;6261871;28;20139;-71
2024/02/23 03:53:47;;;;;;;4.20;2.42;;;;;;;9.67;84.91;98960.22;6254816;28;20056;-70
2024/02/23 03:56:47;;;;;;;6.25;2.50;;;;;;;9.69;85.52;98953.13;6268956;28;20477;-71
2024/02/23 03:59:55;;;;;;;5.32;2.67;;;;;;;9.78;86.53;98948.16;6261594;28;20398;-75
2024/02/23 04:02:58;;;;;;;2.75;2.25;;;;;;;9.71;86.21;98940.00;6257477;28;20057;-75
2024/02/23 04:06:00;;;;;;;4.00;2.20;;;;;;;9.74;86.67;98944.13;6251210;28;20058;-75
2024/02/23 04:09:04;;;;;;;4.68;2.85;;;;;;;9.78;85.74;98945.56;6277925;28;20049;-75
2024/02/23 04:12:07;;;;;;;5.45;2.45;;;;;;;9.90;85.15;98942.03;6264095;28;20428;-76
2024/02/23 04:15:08;;;;;;;4.53;2.40;;;;;;;9.87;85.67;98937.88;6255413;28;20496;-76
2024/02/23 04:18:08;;;;;;;4.70;2.65;;;;;;;9.78;87.34;98937.75;6246509;28;20045;-75
2024/02/23 04:21:09;;;;;;;3.53;1.90;;;;;;;9.63;87.62;98943.16;6249692;28;20098;-75
2024/02/23 04:24:10;;;;;;;5.10;3.00;;;;;;;9.73;90.43;98947.69;6248688;28;20045;-76
2024/02/23 04:27:10;;;;;;;4.57;2.80;;;;;;;9.65;91.29;98943.88;6248997;28;20128;-72
2024/02/23 04:30:14;;;;;;;3.80;2.42;;;;;;;9.64;93.45;98957.84;6245587;28;20505;-76
2024/02/23 04:33:15;;;;;;;10.95;3.13;;;;;;;9.62;94.45;98964.13;6246030;28;20481;-76
2024/02/23 04:36:19;;;;;;;6.45;2.72;;;;;;;9.52;96.23;98969.19;6248364;28;20045;-71
2024/02/23 04:39:21;;;;;;;5.95;2.55;;;;;;;9.32;96.84;98980.22;6256839;28;20053;-75
2024/02/23 04:42:21;;;;;;;2.80;1.80;;;;;;;9.28;99.86;98977.00;6263571;28;20053;-71
2024/02/23 04:45:22;;;;;;;5.90;2.25;;;;;;;9.28;100.00;98974.41;6246795;28;20107;-75
2024/02/23 04:48:25;;;;;;;3.25;2.33;;;;;;;9.24;100.00;98988.59;6247316;28;20049;-75
2024/02/23 04:51:28;;;;;;;4.78;2.70;;;;;;;9.17;100.00;98983.00;6250677;28;20397;-75
2024/02/23 04:54:29;;;;;;;4.47;2.65;;;;;;;9.03;100.00;98991.78;6250996;28;20565;-75
2024/02/23 04:57:31;;;;;;;5.55;3.17;;;;;;;8.99;100.00;98998.16;6249535;28;20049;-75
2024/02/23 05:00:35;;;;;;;10.90;3.08;;;;;;;8.97;100.00;98996.59;6246603;28;20056;-75
2024/02/23 05:03:38;;;;;;;4.70;2.55;;;;;;;9.02;100.00;98984.13;6268089;28;20053;-71
2024/02/23 05:06:39;;;;;;;6.35;3.42;;;;;;;8.98;100.00;98985.28;6264197;28;20053;-71
2024/02/23 05:09:40;;;;;;;7.10;3.28;;;;;;;9.00;100.00;98966.00;6254841;28;20438;-75
2024/02/23 05:12:41;;;;;;;6.45;3.08;;;;;;;8.92;100.00;98967.50;6256083;28;20052;-71
2024/02/23 05:15:42;;;;;;;5.47;3.10;;;;;;;9.08;100.00;98961.09;6250919;28;20045;-75
2024/02/23 05:18:43;;;;;;;4.57;3.03;;;;;;;9.14;100.00;98971.97;6254678;28;20389;-75
2024/02/23 05:21:44;;;;;;;3.90;2.60;;;;;;;8.98;100.00;98988.69;6269047;28;20136;-71
2024/02/23 05:24:45;;;;;;;5.68;3.20;;;;;;;9.04;100.00;99006.47;6270216;28;20059;-71
2024/02/23 05:27:48;;;;;;;7.10;3.85;;;;;;;8.91;100.00;99023.06;6254043;28;20046;-75
2024/02/23 05:30:52;;;;;;;7.30;3.85;;;;;;;8.94;100.00;99028.06;6253023;28;20064;-75
2024/02/23 05:33:55;;;;;;;5.43;3.53;;;;;;;8.94;100.00;99005.47;6262017;28;20052;-71
2024/02/23 05:36:58;;;;;;;8.48;4.30;;;;;;;8.90;100.00;99018.81;6268644;28;20394;-75
2024/02/23 05:39:59;;;;;;;10.88;4.13;;;;;;;8.95;100.00;99020.13;6250473;28;20081;-75
2024/02/23 05:43:00;;;;;;;11.20;4.75;;;;;;;8.96;100.00;99023.59;6262678;28;20389;-75
2024/02/23 05:46:01;;;;;;;7.50;4.25;;;;;;;8.85;100.00;99017.38;6267563;28;20130;-75
2024/02/23 05:49:04;;;;;;;6.68;4.28;;;;;;;8.98;100.00;99022.53;6262490;28;20183;-71
2024/02/23 05:52:05;;;;;;;7.80;3.88;;;;;;;9.01;100.00;99027.50;6273106;28;20130;-73
2024/02/23 05:55:06;;;;;;;12.65;5.72;;;;;;;9.01;100.00;99032.69;6254624;28;20052;-76
2024/02/23 05:58:07;;;;;;;11.13;6.10;;;;;;;9.10;100.00;99039.06;6265911;28;20498;-76
2024/02/23 06:01:10;;;;;;;12.38;6.40;;;;;;;9.01;100.00;99035.31;6249968;28;20061;-75
2024/02/23 06:04:11;;;;;;;14.77;9.70;;;;;;;9.17;100.00;99040.25;6267346;28;20049;-76
2024/02/23 06:07:15;;;;;;;13.63;7.15;;;;;;;9.12;100.00;99044.97;6273723;28;20084;-76
2024/02/23 06:10:16;;;;;;;10.13;5.75;;;;;;;9.10;100.00;99052.06;6273508;28;20500;-76
2024/02/23 06:13:16;;;;;;;8.82;4.22;;;;;;;8.93;100.00;99042.81;6273722;28;20091;-76
2024/02/23 06:16:17;;;;;;;11.60;5.25;;;;;;;9.00;100.00;99049.28;6261320;28;20053;-75
2024/02/23 06:19:20;;;;;;;8.88;4.93;;;;;;;8.90;100.00;99063.88;6262687;28;20052;-75
2024/02/23 06:22:22;;;;;;;9.48;4.05;;;;;;;9.08;100.00;99061.75;6273805;28;20860;-71
2024/02/23 06:25:25;;;;;;;8.15;4.35;;;;;;;9.13;100.00;99064.84;6253710;28;20049;-75
2024/02/23 06:28:26;;;;;;;10.05;4.07;;;;;;;8.96;100.00;99073.00;6264909;28;20053;-75
2024/02/23 06:31:27;;;;;;;11.40;4.80;;;;;;;9.11;100.00;99076.31;6254310;28;20044;-72
2024/02/23 06:34:31;;;;;;;10.60;4.70;;;;;;;8.99;100.00;99078.81;6271879;28;20550;-71
2024/02/23 06:37:33;;;;;;;7.93;4.80;;;;;;;9.07;100.00;99084.31;6270897;28;20045;-70
2024/02/23 06:40:33;;;;;;;7.30;4.60;;;;;;;8.97;100.00;99085.06;6270868;28;20053;-71
2024/02/23 06:43:34;;;;;;;8.27;4.28;;;;;;;9.07;100.00;99081.72;6270682;28;20417;-75
2024/02/23 06:46:35;;;;;;;9.00;4.75;;;;;;;9.11;100.00;99078.91;6271802;28;20052;-75
2024/02/23 06:49:35;;;;;;;7.28;4.47;;;;;;;9.02;100.00;99078.63;6271125;28;20045;-75
2024/02/23 06:52:38;;;;;;;7.65;4.38;;;;;;;8.94;100.00;99082.69;6272562;28;20124;-75
2024/02/23 06:55:40;;;;;;;15.23;5.20;;;;;;;8.95;100.00;99079.13;6272563;28;20099;-75
2024/02/23 06:58:40;;;;;;;11.45;4.72;;;;;;;9.07;100.00;99071.31;6271060;28;20053;-76
2024/02/23 07:01:51;;;;;;;14.52;4.53;;;;;;;9.06;100.00;99072.25;6272114;28;20068;-75
2024/02/23 07:04:56;;;;;;;17.95;5.25;;;;;;;9.07;100.00;99081.72;6272077;28;20053;-71
2024/02/23 07:07:57;;;;;;;6.72;4.22;;;;;;;9.06;100.00;99082.66;6271783;28;20527;-71
2024/02/23 07:10:58;;;;;;;9.68;4.85;;;;;;;9.16;100.00;99082.84;6270096;28;20045;-71
2024/02/23 07:13:58;;;;;;;6.63;3.97;;;;;;;9.21;100.00;99088.56;6270899;28;20060;-72
2024/02/23 07:16:59;;;;;;;9.80;4.57;;;;;;;9.18;100.00;99082.72;6271895;28;20049;-72
2024/02/23 07:20:03;;;;;;;6.45;4.43;;;;;;;9.11;100.00;99073.69;6271903;28;20053;-71
2024/02/23 07:23:05;;;;;;;7.32;4.60;;;;;;;9.16;100.00;99072.44;6270602;28;20049;-72
2024/02/23 07:26:05;;;;;;;10.13;4.88;;;;;;;9.17;100.00;99070.66;6270563;28;20453;-71
2024/02/23 07:29:08;;;;;;;7.13;5.05;;;;;;;9.26;100.00;99070.81;6271636;28;20136;-74
2024/02/23 07:32:09;;;;;;;12.27;5.82;;;;;;;9.00;100.00;99071.88;6271379;28;20052;-75
2024/02/23 07:35:10;;;;;;;8.07;4.90;;;;;;;8.90;100.00;99079.47;6270527;28;20053;-75
2024/02/23 07:38:11;;;;;;;11.02;4.53;;;;;;;8.90;100.00;99081.25;6271180;28;20485;-75
2024/02/23 07:41:15;;;;;;;5.85;4.22;;;;;;;8.91;100.00;99088.09;6269211;28;20056;-75
2024/02/23 07:44:16;;;;;;;9.80;4.25;;;;;;;8.86;100.00;99093.63;6267674;28;20055;-72
2024/02/23 07:47:17;;;;;;;7.63;4.60;;;;;;;8.71;100.00;99079.91;6271633;28;20049;-72
2024/02/23 07:50:19;;;;;;;9.70;5.60;;;;;;;8.86;100.00;99088.44;6270806;28;20061;-72
2024/02/23 07:53:20;;;;;;;8.13;4.57;;;;;;;8.80;100.00;99081.03;6270067;28;20055;-72
2024/02/23 07:56:21;;;;;;;8.15;3.88;;;;;;;8.96;100.00;99080.81;6269881;28;20429;-75
2024/02/23 07:59:22;;;;;;;7.45;4.43;;;;;;;8.91;100.00;99081.13;6270112;28;20202;-75
2024/02/23 08:02:22;;;;;;;7.30;4.15;;;;;;;9.11;100.00;99071.09;6270954;28;20239;-75
2024/02/23 08:05:23;;;;;;;7.57;4.65;;;;;;;8.95;100.00;99068.72;6270938;28;20053;-72
2024/02/23 08:08:26;;;;;;;8.20;4.93;;;;;;;8.90;100.00;99074.25;6271469;28;20490;-72
2024/02/23 08:11:29;;;;;;;7.22;3.53;;;;;;;9.02;100.00;99081.22;6270668;28;20606;-76
2024/02/23 08:14:30;;;;;;;11.00;4.15;;;;;;;8.96;100.00;99071.25;6269907;28;20041;-76
2024/02/23 08:17:33;;;;;;;10.00;4.78;;;;;;;9.05;100.00;99069.75;6270593;28;20056;-76
2024/02/23 08:20:36;;;;;;;7.00;4.20;;;;;;;8.96;100.00;99076.44;6272426;28;20056;-72
2024/02/23 08:23:37;;;;;;;9.00;4.00;;;;;;;8.96;100.00;99073.84;6275715;28;20096;-71
2024/02/23 08:26:38;;;;;;;7.30;3.75;;;;;;;8.88;100.00;99076.97;6274745;28;20390;-75
2024/02/23 08:29:39;;;;;;;7.07;4.00;;;;;;;9.00;100.00;99071.88;6275594;28;20056;-75
2024/02/23 08:32:40;;;;;;;7.03;3.55;;;;;;;8.88;100.00;99074.38;6275520;28;20060;-75
2024/02/23 08:35:43;;;;;;;8.02;3.97;;;;;;;8.88;100.00;99073.53;6274341;28;20424;-76
2024/02/23 08:38:44;;;;;;;6.60;3.83;;;;;;;8.90;100.00;99084.66;6275505;28;20060;-72
2024/02/23 08:41:45;;;;;;;8.40;4.60;;;;;;;8.87;100.00;99082.28;6274213;28;20398;-76
2024/02/23 08:44:46;;;;;;;6.63;4.38;;;;;;;8.78;100.00;99088.13;6274237;28;20056;-76
2024/02/23 08:47:47;;;;;;;7.38;4.03;;;;;;;8.73;100.00;99075.44;6275819;28;20060;-75
2024/02/23 08:50:50;;;;;;;7.30;4.07;;;;;;;8.75;100.00;99081.38;6273973;28;20412;-76
2024/02/23 08:53:51;;;;;;;10.18;4.30;;;;;;;8.77;100.00;99082.09;6275563;28;20049;-72
2024/02/23 08:56:51;;;;;;;7.88;4.57;;;;;;;8.76;100.00;99079.59;6275121;28;20056;-76
2024/02/23 08:59:52;;;;;;;8.38;3.70;;;;;;;8.54;100.00;99072.41;6273885;28;20526;-76
2024/02/23 09:02:53;;;;;;;11.70;4.90;;;;;;;8.67;100.00;99089.69;6274816;28;20057;-75
2024/02/23 09:05:54;;;;;;;10.13;4.82;;;;;;;8.77;100.00;99091.66;6273678;28;20469;-76
2024/02/23 09:08:55;;;;;;;7.20;4.38;;;;;;;8.57;100.00;99091.25;6273825;28;20480;-72
2024/02/23 09:11:55;;;;;;;7.97;4.47;;;;;;;8.58;100.00;99089.47;6273369;28;20056;-73
2024/02/23 09:14:58;;;;;;;8.13;4.30;;;;;;;8.57;100.00;99099.06;6273500;28;20045;-76
2024/02/23 09:18:01;;;;;;;14.48;5.22;;;;;;;8.63;100.00;99093.44;6274770;28;20053;-72
2024/02/23 09:21:02;;;;;;;9.77;5.03;;;;;;;8.74;100.00;99102.28;6273554;28;20483;-72
2024/02/23 09:24:04;;;;;;;9.85;5.05;;;;;;;8.77;100.00;99096.84;6273396;28;20052;-72
2024/02/23 09:27:05;;;;;;;7.43;4.20;;;;;;;8.90;100.00;99095.06;6274594;28;20413;-72
2024/02/23 09:30:06;;;;;;;8.60;4.95;;;;;;;8.85;100.00;99085.00;6273217;28;20137;-76
2024/02/23 09:33:08;;;;;;;7.10;4.70;;;;;;;8.88;100.00;99089.16;6272280;28;20194;-72
2024/02/23 09:36:09;;;;;;;8.57;4.35;;;;;;;8.76;100.00;99083.03;6274128;28;20515;-73
2024/02/23 09:39:12;;;;;;;7.35;3.88;;;;;;;8.86;100.00;99078.03;6274281;28;20059;-76
2024/02/23 09:42:14;;;;;;;7.57;4.38;;;;;;;8.86;100.00;99078.84;6272794;28;20635;-73
2024/02/23 09:45:15;;;;;;;10.70;4.97;;;;;;;9.01;100.00;99083.91;6274189;28;20382;-72
2024/02/23 09:48:21;;;;;;;6.82;4.20;;;;;;;9.01;100.00;99076.94;6273735;28;20116;-72
2024/02/23 09:51:23;;;;;;;5.55;3.47;;;;;;;9.10;100.00;99080.69;6273399;28;20497;-76
2024/02/23 09:54:24;;;;;;;6.05;3.47;;;;;;;9.17;100.00;99078.47;6272574;28;20497;-76
2024/02/23 09:57:25;;;;;;;6.72;4.63;;;;;;;9.18;100.00;99078.38;6273975;28;20056;-76
2024/02/23 10:00:27;;;;;;;7.65;4.47;;;;;;;9.27;100.00;99080.31;6272565;28;20461;-72
2024/02/23 10:03:32;;;;;;;6.13;4.00;;;;;;;9.26;99.46;99078.63;6273732;28;20049;-72
2024/02/23 10:06:33;;;;;;;7.55;4.05;;;;;;;9.44;99.68;99073.88;6272704;28;20049;-72
2024/02/23 10:09:34;;;;;;;6.35;4.00;;;;;;;9.41;100.00;99081.94;6273511;28;20076;-72
2024/02/23 10:12:37;;;;;;;6.45;3.60;;;;;;;9.35;98.92;99081.53;6272407;28;20045;-71
2024/02/23 10:15:38;;;;;;;10.88;3.75;;;;;;;9.33;97.44;99079.06;6273511;28;20060;-72
2024/02/23 10:18:39;;;;;;;8.38;4.35;;;;;;;9.55;97.65;99078.31;6273277;28;20403;-71
2024/02/23 10:21:42;;;;;;;8.68;3.78;;;;;;;9.51;96.62;99076.88;6271906;28;20394;-72
2024/02/23 10:24:46;;;;;;;6.07;3.92;;;;;;;9.56;99.41;99080.00;6271914;28;20128;-71
2024/02/23 10:27:47;;;;;;;6.22;3.80;;;;;;;9.55;99.24;99073.13;6273298;28;20504;-71
2024/02/23 10:30:48;;;;;;;7.05;3.33;;;;;;;9.47;97.38;99070.22;6273033;28;20056;-74
2024/02/23 10:33:52;;;;;;;7.55;4.10;;;;;;;9.53;98.64;99074.16;6273153;28;20060;-76
2024/02/23 10:36:54;;;;;;;6.63;3.47;;;;;;;9.55;97.98;99065.31;6271751;28;20413;-72
2024/02/23 10:39:58;;;;;;;14.32;3.90;;;;;;;9.67;97.77;99069.63;6272971;28;20079;-75
2024/02/23 10:43:03;;;;;;;9.93;4.03;;;;;;;9.70;98.87;99073.78;6271330;28;20053;-76
2024/02/23 10:46:07;;;;;;;6.82;3.95;;;;;;;9.83;97.52;99089.34;6273002;28;20059;-74
2024/02/23 10:49:10;;;;;;;6.18;4.05;;;;;;;9.72;96.09;99077.13;6271542;28;20092;-72
2024/02/23 10:52:13;;;;;;;6.75;3.75;;;;;;;9.79;96.41;99072.28;6272670;28;20045;-71
2024/02/23 10:55:14;;;;;;;6.97;3.83;;;;;;;9.71;96.53;99070.22;6272712;28;20045;-71
2024/02/23 10:58:17;;;;;;;8.02;4.60;;;;;;;9.84;96.43;99072.75;6272414;28;20511;-71
2024/02/23 11:01:20;;;;;;;8.45;4.13;;;;;;;9.89;97.01;99063.66;6272548;28;20061;-75
2024/02/23 11:04:22;;;;;;;7.22;4.15;;;;;;;9.89;95.78;99073.28;6271158;28;20140;-75
2024/02/23 11:07:25;;;;;;;7.53;4.40;;;;;;;9.89;95.20;99066.28;6272435;28;20413;-71
2024/02/23 11:10:27;;;;;;;8.75;4.63;;;;;;;9.98;94.46;99066.53;6272155;28;20049;-75
2024/02/23 11:13:35;;;;;;;6.28;3.47;;;;;;;9.80;94.52;99056.53;6272051;28;20544;-71
2024/02/23 11:16:42;;;;;;;8.40;4.32;;;;;;;9.96;95.50;99060.63;6272034;28;20477;-71
2024/02/23 11:19:46;;;;;;;7.05;3.92;;;;;;;10.03;95.44;99067.88;6271010;28;20052;-71
2024/02/23 11:22:53;;;;;;;7.05;4.07;;;;;;;10.00;94.46;99068.09;6271853;28;20056;-71
2024/02/23 11:26:03;;;;;;;7.38;4.15;;;;;;;9.96;95.10;99065.81;6271895;28;20072;-71
2024/02/23 11:29:14;;;;;;;7.15;3.72;;;;;;;9.97;94.78;99067.50;6271759;28;20406;-71
2024/02/23 11:32:17;;;;;;;7.80;4.05;;;;;;;10.04;93.78;99061.69;6271936;28;20076;-71
2024/02/23 11:35:21;;;;;;;5.95;3.72;;;;;;;10.00;94.51;99070.69;6270341;28;20579;-71
2024/02/23 11:38:24;;;;;;;12.77;4.22;;;;;;;10.13;94.10;99069.78;6271631;28;20561;-71
2024/02/23 11:41:26;;;;;;;6.25;3.80;;;;;;;10.06;94.31;99079.84;6271596;28;20137;-71
2024/02/23 11:44:27;;;;;;;6.25;4.15;;;;;;;10.14;94.00;99082.69;6271604;28;20095;-72
2024/02/23 11:47:27;;;;;;;8.13;3.70;;;;;;;10.24;92.92;99080.25;6271344;28;20057;-71
2024/02/23 11:50:28;;;;;;;8.73;4.03;;;;;;;10.33;91.82;99079.56;6271348;28;20416;-72
2024/02/23 11:53:29;;;;;;;7.35;4.15;;;;;;;10.28;91.85;99077.28;6271185;28;20052;-76
2024/02/23 11:56:30;;;;;;;6.25;3.80;;;;;;;10.37;91.50;99067.13;6270649;28;20076;-76
2024/02/23 11:59:32;;;;;;;12.40;4.30;;;;;;;10.32;91.24;99064.06;6270087;28;20115;-76
2024/02/23 12:02:35;;;;;;;7.25;4.43;;;;;;;10.41;91.40;99073.78;6270998;28;20404;-76
2024/02/23 12:05:35;;;;;;;7.00;3.67;;;;;;;10.40;91.11;99078.19;6271092;28;20488;-76
2024/02/23 12:08:41;;;;;;;7.50;4.20;;;;;;;10.25;90.23;99079.28;6269981;28;20135;-76
2024/02/23 12:11:42;;;;;;;7.68;4.10;;;;;;;10.24;90.62;99080.25;6269847;28;20409;-71
2024/02/23 12:14:43;;;;;;;6.43;3.95;;;;;;;10.33;89.72;99084.78;6270886;28;20084;-71
2024/02/23 12:17:50;;;;;;;8.60;5.15;;;;;;;10.42;90.38;99068.47;6271215;28;20083;-71
2024/02/23 12:20:51;;;;;;;8.15;3.95;;;;;;;10.44;90.06;99066.56;6269760;28;20052;-70
2024/02/23 12:23:52;;;;;;;6.47;3.88;;;;;;;10.35;90.23;99063.81;6271092;28;20045;-71
2024/02/23 12:26:59;;;;;;;8.00;4.63;;;;;;;10.40;89.74;99065.13;6270974;28;20045;-76
2024/02/23 12:29:59;;;;;;;6.20;4.22;;;;;;;10.52;89.17;99065.13;6270801;28;20079;-76
2024/02/23 12:33:09;;;;;;;9.27;4.57;;;;;;;10.46;88.69;99062.06;6270844;28;20045;-76
2024/02/23 12:36:10;;;;;;;6.18;3.92;;;;;;;10.28;89.11;99060.81;6270748;28;20052;-76
2024/02/23 12:39:11;;;;;;;6.13;4.10;;;;;;;10.34;87.87;99064.78;6270855;28;20052;-76
2024/02/23 12:42:12;;;;;;;11.65;3.72;;;;;;;10.52;88.20;99054.69;6269433;28;20060;-75
2024/02/23 12:45:14;;;;;;;6.00;3.33;;;;;;;10.54;87.30;99053.63;6269440;28;20098;-75
2024/02/23 12:48:17;;;;;;;6.18;3.75;;;;;;;10.67;87.63;99056.16;6270594;28;20053;-75
2024/02/23 12:51:20;;;;;;;7.20;4.13;;;;;;;10.58;87.03;99055.06;6270699;28;20654;-71
2024/02/23 12:54:21;;;;;;;7.45;3.67;;;;;;;10.57;87.14;99053.41;6270358;28;20049;-71
2024/02/23 12:57:22;;;;;;;7.22;3.53;;;;;;;10.55;87.23;99064.91;6270723;28;20067;-71
2024/02/23 13:00:22;;;;;;;7.88;4.00;;;;;;;10.51;85.86;99061.69;6270331;28;20057;-71
2024/02/23 13:03:29;;;;;;;7.28;3.55;;;;;;;10.48;86.22;99059.34;6270330;28;20045;-71
2024/02/23 13:06:30;;;;;;;7.90;3.40;;;;;;;10.59;86.12;99054.13;6271755;28;20056;-71
2024/02/23 13:09:32;;;;;;;15.00;4.28;;;;;;;10.44;85.41;99056.13;6274944;28;20095;-70
2024/02/23 13:12:33;;;;;;;8.10;4.32;;;;;;;10.58;85.09;99057.66;6274904;28;20572;-72
2024/02/23 13:15:36;;;;;;;7.63;3.47;;;;;;;10.56;84.64;99062.16;6273512;28;20098;-72
2024/02/23 13:18:37;;;;;;;6.10;3.90;;;;;;;10.61;84.14;99061.84;6274782;28;20107;-70
2024/02/23 13:21:38;;;;;;;6.57;4.05;;;;;;;10.58;84.92;99062.06;6274656;28;20444;-71
2024/02/23 13:24:40;;;;;;;7.47;3.70;;;;;;;10.57;84.75;99063.03;6274499;28;20481;-71
2024/02/23 13:27:40;;;;;;;7.55;3.35;;;;;;;10.42;83.72;99054.59;6274834;28;20049;-71
2024/02/23 13:30:41;;;;;;;5.97;3.97;;;;;;;10.57;85.10;99069.06;6274531;28;20136;-71
2024/02/23 13:33:42;;;;;;;4.93;3.33;;;;;;;10.50;83.96;99073.09;6273165;28;20490;-71
2024/02/23 13:36:43;;;;;;;6.25;3.70;;;;;;;10.58;84.45;99080.31;6273168;28;20052;-71
2024/02/23 13:39:44;;;;;;;7.55;3.85;;;;;;;10.57;84.39;99081.28;6274526;28;20084;-71
2024/02/23 13:42:49;;;;;;;5.97;3.45;;;;;;;10.56;84.61;99077.81;6273009;28;20045;-72
2024/02/23 13:45:54;;;;;;;6.63;4.30;;;;;;;10.62;84.32;99082.56;6273111;28;20053;-70
2024/02/23 13:49:04;;;;;;;8.30;3.72;;;;;;;10.77;84.66;99077.97;6272935;28;20053;-71
2024/02/23 13:52:05;;;;;;;9.40;4.25;;;;;;;10.81;84.88;99074.19;6273982;28;20570;-71
2024/02/23 13:55:06;;;;;;;10.27;4.85;;;;;;;10.71;84.63;99083.66;6272563;28;20048;-76
2024/02/23 13:58:10;;;;;;;6.90;3.90;;;;;;;10.73;84.83;99083.53;6274076;28;20132;-72
2024/02/23 14:01:11;;;;;;;8.52;4.10;;;;;;;10.80;85.37;99076.91;6273684;28;20468;-70
2024/02/23 14:04:12;;;;;;;9.38;4.78;;;;;;;10.70;85.76;99081.97;6273929;28;20041;-75
2024/02/23 14:07:14;;;;;;;6.75;4.05;;;;;;;10.69;85.74;99075.94;6273613;28;20049;-75
2024/02/23 14:10:15;;;;;;;6.35;3.70;;;;;;;10.76;84.62;99078.09;6273641;28;20053;-71
2024/02/23 14:13:16;;;;;;;11.20;4.60;;;;;;;10.82;85.59;99075.81;6272224;28;20052;-72
2024/02/23 14:16:17;;;;;;;10.00;4.40;;;;;;;10.76;84.04;99067.66;6272244;28;20053;-71
2024/02/23 14:19:19;;;;;;;11.73;5.20;;;;;;;10.78;85.48;99082.22;6267139;28;20072;-75